createdAt,value
2023-11-01T00:01:29.392Z,101140.02
2023-11-01T00:03:57.400Z,101126.09
2023-11-01T00:06:25.420Z,101122.23
2023-11-01T00:08:53.502Z,101125.08
2023-11-01T00:11:21.551Z,101118.37
2023-11-01T00:13:49.582Z,101123.93
2023-11-01T00:16:18.179Z,101133.31
2023-11-01T00:18:46.206Z,101132.79
2023-11-01T00:21:14.149Z,101130.77
2023-11-01T00:23:42.211Z,101123.77
2023-11-01T00:26:10.372Z,101129.95
2023-11-01T00:28:38.515Z,101128.28
2023-11-01T00:31:06.759Z,101131.48
2023-11-01T00:33:34.832Z,101135.31
2023-11-01T00:36:02.969Z,101129.30
2023-11-01T00:38:31.010Z,101136.13
2023-11-01T00:40:59.051Z,101136.81
2023-11-01T00:43:27.209Z,101133.12
2023-11-01T00:45:55.209Z,101125.41
2023-11-01T00:48:23.273Z,101127.23
2023-11-01T00:50:51.257Z,101119.02
2023-11-01T00:53:19.260Z,101121.71
2023-11-01T00:55:47.300Z,101121.71
2023-11-01T00:58:15.860Z,101110.95
2023-11-01T01:00:43.862Z,101119.48
2023-11-01T01:03:13.106Z,101123.84
2023-11-01T01:05:41.200Z,101118.80
2023-11-01T01:08:09.246Z,101108.07
2023-11-01T01:10:37.285Z,101102.19
2023-11-01T01:13:05.351Z,101097.48
2023-11-01T01:15:33.442Z,101093.63
2023-11-01T01:18:01.607Z,101095.95
2023-11-01T01:20:29.754Z,101097.61
2023-11-01T01:22:57.857Z,101090.58
2023-11-01T01:25:25.964Z,101081.85
2023-11-01T01:27:53.990Z,101075.64
2023-11-01T01:30:22.393Z,101075.34
2023-11-01T01:32:50.485Z,101077.99
2023-11-01T01:35:18.803Z,101071.45
2023-11-01T01:37:46.871Z,101075.28
2023-11-01T01:40:15.161Z,101059.39
2023-11-01T01:42:43.213Z,101052.33
2023-11-01T01:45:11.539Z,101050.13
2023-11-01T01:47:39.632Z,101057.33
2023-11-01T01:50:09.277Z,101049.45
2023-11-01T01:52:37.349Z,101051.28
2023-11-01T01:55:06.535Z,101046.24
2023-11-01T01:57:34.957Z,101046.57
2023-11-01T02:00:03.019Z,101039.02
2023-11-01T02:02:31.155Z,101040.52
2023-11-01T02:04:59.244Z,101038.66
2023-11-01T02:07:27.260Z,101024.60
2023-11-01T02:09:55.220Z,101017.54
2023-11-01T02:12:26.353Z,101016.20
2023-11-01T02:14:54.385Z,101008.32
2023-11-01T02:17:22.341Z,101004.10
2023-11-01T02:19:50.426Z,101004.46
2023-11-01T02:22:18.427Z,100993.70
2023-11-01T02:24:46.404Z,100993.87
2023-11-01T02:27:14.615Z,100983.63
2023-11-01T02:29:42.604Z,100994.00
2023-11-01T02:32:10.713Z,100987.78
2023-11-01T02:34:38.725Z,100987.62
2023-11-01T02:37:06.810Z,100987.42
2023-11-01T02:39:34.894Z,100993.24
2023-11-01T02:42:02.945Z,100991.05
2023-11-01T02:44:31.067Z,100991.94
2023-11-01T02:46:59.060Z,100991.22
2023-11-01T02:49:27.260Z,100979.84
2023-11-01T02:51:55.196Z,100979.31
2023-11-01T02:54:23.457Z,100971.83
2023-11-01T02:56:51.447Z,100981.51
2023-11-01T02:59:19.413Z,100980.69
2023-11-01T03:01:47.491Z,100978.37
2023-11-01T03:04:15.499Z,100977.52
2023-11-01T03:06:43.490Z,100981.51
2023-11-01T03:09:11.491Z,100975.98
2023-11-01T03:11:42.828Z,100979.31
2023-11-01T03:14:11.118Z,100976.18
2023-11-01T03:16:40.167Z,100971.99
2023-11-01T03:19:08.236Z,100974.84
2023-11-01T03:21:36.298Z,100973.13
2023-11-01T03:24:04.435Z,100975.49
2023-11-01T03:26:32.501Z,100968.10
2023-11-01T03:29:00.542Z,100966.43
2023-11-01T03:31:28.849Z,100959.21
2023-11-01T03:33:56.848Z,100960.52
2023-11-01T03:36:24.845Z,100951.98
2023-11-01T03:38:52.821Z,100957.48
2023-11-01T03:41:20.891Z,100960.45
2023-11-01T03:43:49.931Z,100959.44
2023-11-01T03:46:17.948Z,100954.04
2023-11-01T03:48:45.999Z,100953.42
2023-11-01T03:51:14.048Z,100955.74
2023-11-01T03:53:42.072Z,100937.37
2023-11-01T03:56:10.461Z,100937.17
2023-11-01T03:58:38.436Z,100932.63
2023-11-01T04:01:06.518Z,100928.11
2023-11-01T04:03:34.660Z,100931.80
2023-11-01T04:06:02.968Z,100928.96
2023-11-01T04:08:31.070Z,100928.48
2023-11-01T04:10:59.048Z,100929.95
2023-11-01T04:13:27.111Z,100924.09
2023-11-01T04:15:55.130Z,100927.23
2023-11-01T04:18:23.511Z,100917.68
2023-11-01T04:20:51.605Z,100924.02
2023-11-01T04:23:19.605Z,100925.50
2023-11-01T04:25:47.748Z,100927.49
2023-11-01T04:28:15.784Z,100922.13
2023-11-01T04:30:43.773Z,100916.80
2023-11-01T04:33:14.506Z,100909.73
2023-11-01T04:35:42.575Z,100915.72
2023-11-01T04:38:10.632Z,100906.73
2023-11-01T04:40:38.567Z,100898.20
2023-11-01T04:43:06.550Z,100894.86
2023-11-01T04:45:34.607Z,100891.00
2023-11-01T04:48:02.712Z,100875.31
2023-11-01T04:50:30.870Z,100876.16
2023-11-01T04:52:59.909Z,100873.61
2023-11-01T04:55:28.006Z,100878.45
2023-11-01T04:57:55.995Z,100875.31
2023-11-01T05:00:24.002Z,100881.00
2023-11-01T05:02:52.138Z,100875.96
2023-11-01T05:05:20.248Z,100884.46
2023-11-01T05:07:48.245Z,100877.92
2023-11-01T05:10:16.308Z,100878.58
2023-11-01T05:12:44.310Z,100872.40
2023-11-01T05:15:12.449Z,100865.04
2023-11-01T05:17:49.063Z,100857.69
2023-11-01T05:20:17.195Z,100864.39
2023-11-01T05:22:45.267Z,100864.20
2023-11-01T05:25:16.060Z,100862.72
2023-11-01T05:27:45.999Z,100859.58
2023-11-01T05:30:20.058Z,100857.88
2023-11-01T05:32:51.702Z,100849.19
2023-11-01T05:35:19.849Z,100838.16
2023-11-01T05:37:47.970Z,100843.33
2023-11-01T05:40:16.121Z,100836.47
2023-11-01T05:42:51.117Z,100837.31
2023-11-01T05:45:22.312Z,100840.29
2023-11-01T05:47:54.499Z,100842.29
2023-11-01T05:50:29.717Z,100851.44
2023-11-01T05:53:03.188Z,100842.94
2023-11-01T05:55:42.285Z,100841.60
2023-11-01T05:58:16.972Z,100838.76
2023-11-01T06:00:45.398Z,100833.72
2023-11-01T06:03:13.623Z,100835.52
2023-11-01T06:05:41.819Z,100834.66
2023-11-01T06:08:11.516Z,100835.84
2023-11-01T06:10:39.886Z,100840.98
2023-11-01T06:13:11.148Z,100841.83
2023-11-01T06:15:39.619Z,100830.48
2023-11-01T06:18:09.196Z,100845.82
2023-11-01T06:20:38.934Z,100837.97
2023-11-01T06:23:07.133Z,100836.59
2023-11-01T06:25:35.115Z,100848.79
2023-11-01T06:28:06.193Z,100850.66
2023-11-01T06:30:34.192Z,100852.03
2023-11-01T06:33:07.833Z,100856.21
2023-11-01T06:35:35.899Z,100846.21
2023-11-01T06:38:03.957Z,100848.92
2023-11-01T06:40:36.747Z,100834.93
2023-11-01T06:43:04.792Z,100837.12
2023-11-01T06:45:32.797Z,100837.84
2023-11-01T06:48:01.038Z,100835.81
2023-11-01T06:50:29.152Z,100829.50
2023-11-01T06:52:57.913Z,100826.00
2023-11-01T06:55:26.186Z,100819.86
2023-11-01T06:57:54.694Z,100818.38
2023-11-01T07:00:22.808Z,100819.20
2023-11-01T07:02:51.013Z,100812.04
2023-11-01T07:05:19.207Z,100815.73
2023-11-01T07:07:47.476Z,100820.09
2023-11-01T07:10:15.612Z,100819.13
2023-11-01T07:12:43.704Z,100813.52
2023-11-01T07:15:12.634Z,100802.49
2023-11-01T07:17:40.715Z,100801.84
2023-11-01T07:20:09.307Z,100801.35
2023-11-01T07:22:37.398Z,100803.05
2023-11-01T07:25:06.777Z,100796.28
2023-11-01T07:27:34.796Z,100797.79
2023-11-01T07:30:02.752Z,100798.63
2023-11-01T07:32:30.860Z,100804.69
2023-11-01T07:34:59.655Z,100801.22
2023-11-01T07:37:27.654Z,100792.85
2023-11-01T07:39:55.699Z,100799.72
2023-11-01T07:42:23.723Z,100808.25
2023-11-01T07:44:52.530Z,100815.45
2023-11-01T07:47:20.616Z,100812.70
2023-11-01T07:49:48.640Z,100797.36
2023-11-01T07:52:16.621Z,100793.11
2023-11-01T07:54:44.614Z,100788.86
2023-11-01T07:57:12.660Z,100791.67
2023-11-01T07:59:40.715Z,100785.82
2023-11-01T08:02:08.787Z,100791.25
2023-11-01T08:04:37.171Z,100803.18
2023-11-01T08:07:05.427Z,100792.33
2023-11-01T08:09:33.529Z,100786.63
2023-11-01T08:12:01.587Z,100789.19
2023-11-01T08:14:29.607Z,100782.78
2023-11-01T08:16:58.897Z,100779.48
2023-11-01T08:19:27.038Z,100776.86
2023-11-01T08:21:55.210Z,100772.91
2023-11-01T08:24:23.150Z,100763.98
2023-11-01T08:26:51.723Z,100761.63
2023-11-01T08:29:19.895Z,100761.13
2023-11-01T08:31:47.983Z,100761.63
2023-11-01T08:34:16.197Z,100766.59
2023-11-01T08:36:44.283Z,100762.31
2023-11-01T08:39:12.325Z,100763.48
2023-11-01T08:41:40.304Z,100766.59
2023-11-01T08:44:08.374Z,100768.13
2023-11-01T08:46:36.398Z,100774.87
2023-11-01T08:49:04.611Z,100771.99
2023-11-01T08:51:32.614Z,100770.02
2023-11-01T08:54:03.639Z,100773.91
2023-11-01T08:56:32.555Z,100792.20
2023-11-01T08:59:00.759Z,100780.46
2023-11-01T09:01:28.762Z,100785.10
2023-11-01T09:03:56.845Z,100778.27
2023-11-01T09:06:24.917Z,100781.50
2023-11-01T09:08:53.025Z,100772.80
2023-11-01T09:11:25.801Z,100774.12
2023-11-01T09:13:54.219Z,100771.43
2023-11-01T09:16:22.930Z,100771.11
2023-11-01T09:18:51.008Z,100766.85
2023-11-01T09:21:21.748Z,100777.52
2023-11-01T09:23:50.623Z,100782.48
2023-11-01T09:26:19.633Z,100764.70
2023-11-01T09:28:47.880Z,100763.06
2023-11-01T09:31:15.852Z,100764.08
2023-11-01T09:33:45.374Z,100772.84
2023-11-01T09:36:14.090Z,100770.52
2023-11-01T09:38:42.109Z,100772.28
2023-11-01T09:41:10.182Z,100766.27
2023-11-01T09:43:38.705Z,100759.89
2023-11-01T09:46:07.278Z,100755.12
2023-11-01T09:48:35.408Z,100754.82
2023-11-01T09:51:04.093Z,100758.81
2023-11-01T09:53:32.189Z,100747.11
2023-11-01T09:56:00.196Z,100743.51
2023-11-01T09:58:28.608Z,100741.52
2023-11-01T10:00:57.132Z,100745.21
2023-11-01T10:03:25.165Z,100739.55
2023-11-01T10:05:53.216Z,100740.47
2023-11-01T10:08:22.415Z,100743.05
2023-11-01T10:10:50.471Z,100738.18
2023-11-01T10:13:18.465Z,100740.90
2023-11-01T10:15:46.562Z,100728.99
2023-11-01T10:18:14.775Z,100735.66
2023-11-01T10:20:42.862Z,100724.28
2023-11-01T10:23:10.821Z,100721.96
2023-11-01T10:25:39.311Z,100731.94
2023-11-01T10:28:16.237Z,100721.44
2023-11-01T10:30:46.618Z,100723.77
2023-11-01T10:33:18.303Z,100719.12
2023-11-01T10:35:46.763Z,100709.12
2023-11-01T10:38:15.585Z,100700.65
2023-11-01T10:40:43.606Z,100699.17
2023-11-01T10:43:12.337Z,100704.83
2023-11-01T10:45:40.418Z,100699.01
2023-11-01T10:48:08.546Z,100709.18
2023-11-01T10:50:37.238Z,100697.44
2023-11-01T10:53:05.520Z,100690.05
2023-11-01T10:55:33.556Z,100690.31
2023-11-01T10:58:01.696Z,100689.89
2023-11-01T11:00:40.253Z,100681.65
2023-11-01T11:03:13.940Z,100684.33
2023-11-01T11:05:42.919Z,100684.33
2023-11-01T11:08:14.219Z,100680.96
2023-11-01T11:10:42.765Z,100675.24
2023-11-01T11:13:10.819Z,100674.78
2023-11-01T11:15:58.819Z,100668.51
2023-11-01T11:18:27.742Z,100659.52
2023-11-01T11:21:01.086Z,100651.86
2023-11-01T11:23:38.336Z,100644.84
2023-11-01T11:26:06.622Z,100632.96
2023-11-01T11:28:34.558Z,100629.34
2023-11-01T11:31:14.531Z,100627.05
2023-11-01T11:33:48.694Z,100622.96
2023-11-01T11:36:21.321Z,100619.76
2023-11-01T11:39:04.495Z,100623.71
2023-11-01T11:41:41.298Z,100616.32
2023-11-01T11:44:09.939Z,100609.75
2023-11-01T11:46:44.026Z,100604.65
2023-11-01T11:49:23.112Z,100597.13
2023-11-01T11:51:58.126Z,100602.39
2023-11-01T11:54:30.366Z,100599.78
2023-11-01T11:57:20.084Z,100597.88
2023-11-01T11:59:48.504Z,100594.71
2023-11-01T12:02:17.821Z,100593.27
2023-11-01T12:04:48.735Z,100586.77
2023-11-01T12:07:23.776Z,100587.06
2023-11-01T12:09:55.328Z,100578.79
2023-11-01T12:12:23.825Z,100572.97
2023-11-01T12:15:02.871Z,100565.55
2023-11-01T12:17:31.132Z,100561.10
2023-11-01T12:19:59.583Z,100564.79
2023-11-01T12:22:27.666Z,100563.13
2023-11-01T12:24:57.730Z,100560.25
2023-11-01T12:27:32.615Z,100555.28
2023-11-01T12:30:02.896Z,100552.70
2023-11-01T12:32:36.647Z,100564.95
2023-11-01T12:35:07.563Z,100556.65
2023-11-01T12:37:37.403Z,100548.41
2023-11-01T12:40:15.941Z,100541.38
2023-11-01T12:42:48.709Z,100540.96
2023-11-01T12:45:20.194Z,100543.84
2023-11-01T12:47:55.318Z,100529.91
2023-11-01T12:50:23.992Z,100527.55
2023-11-01T12:52:52.217Z,100519.41
2023-11-01T12:55:20.341Z,100513.72
2023-11-01T12:57:52.850Z,100499.70
2023-11-01T13:00:21.877Z,100505.35
2023-11-01T13:02:50.230Z,100500.02
2023-11-01T13:05:18.794Z,100491.84
2023-11-01T13:07:49.661Z,100483.97
2023-11-01T13:10:18.719Z,100480.80
2023-11-01T13:12:48.444Z,100471.51
2023-11-01T13:15:17.536Z,100466.34
2023-11-01T13:17:45.876Z,100468.90
2023-11-01T13:20:13.930Z,100461.44
2023-11-01T13:22:42.056Z,100466.15
2023-11-01T13:25:10.329Z,100454.51
2023-11-01T13:27:38.462Z,100447.25
2023-11-01T13:30:07.309Z,100441.46
2023-11-01T13:32:35.819Z,100438.98
2023-11-01T13:35:03.991Z,100442.61
2023-11-01T13:37:34.220Z,100445.32
2023-11-01T13:40:02.404Z,100456.38
2023-11-01T13:42:30.580Z,100457.42
2023-11-01T13:44:58.695Z,100460.59
2023-11-01T13:47:27.939Z,100461.84
2023-11-01T13:49:57.129Z,100462.29
2023-11-01T13:52:25.967Z,100463.11
2023-11-01T13:54:54.555Z,100472.52
2023-11-01T13:57:23.835Z,100479.91
2023-11-01T13:59:52.008Z,100473.77
2023-11-01T14:02:20.202Z,100472.91
2023-11-01T14:04:48.295Z,100477.88
2023-11-01T14:07:16.305Z,100481.62
2023-11-01T14:09:45.996Z,100477.13
2023-11-01T14:12:14.108Z,100481.16
2023-11-01T14:14:42.206Z,100485.60
2023-11-01T14:17:10.314Z,100490.96
2023-11-01T14:19:38.364Z,100493.74
2023-11-01T14:22:06.443Z,100483.94
2023-11-01T14:24:35.060Z,100467.03
2023-11-01T14:27:04.868Z,100463.63
2023-11-01T14:29:33.805Z,100468.08
2023-11-01T14:32:02.023Z,100466.70
2023-11-01T14:34:30.365Z,100477.33
2023-11-01T14:36:58.960Z,100480.60
2023-11-01T14:39:27.514Z,100489.13
2023-11-01T14:41:55.847Z,100493.65
2023-11-01T14:44:23.900Z,100491.06
2023-11-01T14:46:51.925Z,100493.94
2023-11-01T14:49:19.957Z,100489.69
2023-11-01T14:51:47.989Z,100491.59
2023-11-01T14:54:17.475Z,100499.73
2023-11-01T14:56:47.268Z,100480.77
2023-11-01T14:59:18.182Z,100479.03
2023-11-01T15:01:50.397Z,100482.59
2023-11-01T15:04:18.676Z,100475.11
2023-11-01T15:06:46.818Z,100473.05
2023-11-01T15:09:19.894Z,100490.24
2023-11-01T15:11:51.163Z,100488.12
2023-11-01T15:14:19.273Z,100490.93
2023-11-01T15:16:48.130Z,100484.75
2023-11-01T15:19:16.338Z,100492.50
2023-11-01T15:21:44.599Z,100493.16
2023-11-01T15:24:12.800Z,100504.99
2023-11-01T15:26:40.830Z,100503.72
2023-11-01T15:29:13.483Z,100500.77
2023-11-01T15:31:41.660Z,100489.76
2023-11-01T15:34:10.799Z,100478.57
2023-11-01T15:36:39.373Z,100470.01
2023-11-01T15:39:07.429Z,100470.66
2023-11-01T15:41:35.784Z,100463.23
2023-11-01T15:44:03.975Z,100460.30
2023-11-01T15:46:32.022Z,100449.96
2023-11-01T15:49:00.045Z,100441.20
2023-11-01T15:51:28.015Z,100432.05
2023-11-01T15:53:56.052Z,100433.09
2023-11-01T15:56:24.071Z,100429.30
2023-11-01T15:58:52.196Z,100445.29
2023-11-01T16:01:22.159Z,100446.92
2023-11-01T16:03:50.352Z,100454.31
2023-11-01T16:06:18.965Z,100453.49
2023-11-01T16:08:47.154Z,100444.54
2023-11-01T16:11:15.316Z,100443.59
2023-11-01T16:13:43.549Z,100446.47
2023-11-01T16:16:11.679Z,100418.97
2023-11-01T16:18:39.774Z,100421.35
2023-11-01T16:21:07.909Z,100434.86
2023-11-01T16:23:35.998Z,100464.68
2023-11-01T16:26:04.088Z,100469.58
2023-11-01T16:28:32.412Z,100453.95
2023-11-01T16:31:00.496Z,100458.01
2023-11-01T16:33:28.626Z,100452.68
2023-11-01T16:35:56.917Z,100454.15
2023-11-01T16:38:26.425Z,100460.23
2023-11-01T16:40:54.773Z,100456.93
2023-11-01T16:43:25.329Z,100446.92
2023-11-01T16:45:53.556Z,100451.70
2023-11-01T16:48:21.616Z,100445.52
2023-11-01T16:50:49.743Z,100444.70
2023-11-01T16:53:17.879Z,100452.41
2023-11-01T16:55:45.889Z,100458.63
2023-11-01T16:58:13.991Z,100457.32
2023-11-01T17:00:41.975Z,100464.97
2023-11-01T17:03:13.030Z,100454.28
2023-11-01T17:05:41.241Z,100450.95
2023-11-01T17:08:09.425Z,100456.57
2023-11-01T17:10:37.691Z,100458.50
2023-11-01T17:13:07.313Z,100459.58
2023-11-01T17:15:35.424Z,100459.97
2023-11-01T17:18:04.062Z,100461.90
2023-11-01T17:20:32.205Z,100471.31
2023-11-01T17:23:06.007Z,100471.77
2023-11-01T17:25:58.075Z,100462.75
2023-11-01T17:28:28.795Z,100464.74
2023-11-01T17:30:57.048Z,100470.46
2023-11-01T17:33:38.790Z,100470.01
2023-11-01T17:36:08.696Z,100466.31
2023-11-01T17:38:42.230Z,100469.29
2023-11-01T17:41:10.506Z,100451.40
2023-11-01T17:43:49.587Z,100456.63
2023-11-01T17:46:20.826Z,100453.79
2023-11-01T17:48:49.194Z,100454.70
2023-11-01T17:51:17.296Z,100445.68
2023-11-01T17:53:45.347Z,100433.48
2023-11-01T17:56:16.013Z,100443.39
2023-11-01T17:58:55.469Z,100439.20
2023-11-01T18:01:24.015Z,100448.52
2023-11-01T18:03:52.728Z,100435.41
2023-11-01T18:06:22.406Z,100431.36
2023-11-01T18:08:50.700Z,100426.09
2023-11-01T18:11:20.705Z,100414.65
2023-11-01T18:13:48.771Z,100415.05
2023-11-01T18:16:17.766Z,100416.68
2023-11-01T18:18:46.367Z,100431.46
2023-11-01T18:21:20.077Z,100429.98
2023-11-01T18:23:52.759Z,100431.30
2023-11-01T18:26:22.230Z,100447.25
2023-11-01T18:28:51.622Z,100446.53
2023-11-01T18:31:26.184Z,100454.37
2023-11-01T18:33:58.582Z,100449.48
2023-11-01T18:36:27.140Z,100470.34
2023-11-01T18:38:59.108Z,100495.54
2023-11-01T18:41:29.633Z,100506.85
2023-11-01T18:44:00.122Z,100508.78
2023-11-01T18:46:36.086Z,100508.06
2023-11-01T18:49:05.974Z,100499.63
2023-11-01T18:51:59.062Z,100494.76
2023-11-01T18:54:38.640Z,100486.06
2023-11-01T18:57:08.109Z,100484.75
2023-11-01T18:59:36.528Z,100491.42
2023-11-01T19:02:07.519Z,100500.02
2023-11-01T19:04:35.577Z,100486.65
2023-11-01T19:07:06.153Z,100483.31
2023-11-01T19:09:37.365Z,100471.87
2023-11-01T19:12:05.699Z,100446.40
2023-11-01T19:14:36.571Z,100456.08
2023-11-01T19:17:07.344Z,100437.24
2023-11-01T19:19:38.272Z,100450.62
2023-11-01T19:22:09.264Z,100446.92
2023-11-01T19:24:37.331Z,100448.03
2023-11-01T19:27:15.285Z,100449.24
2023-11-01T19:29:46.627Z,100445.52
2023-11-01T19:32:14.677Z,100454.97
2023-11-01T19:34:45.457Z,100439.34
2023-11-01T19:37:13.451Z,100421.71
2023-11-01T19:39:41.489Z,100421.98
2023-11-01T19:42:09.569Z,100425.57
2023-11-01T19:44:37.753Z,100412.85
2023-11-01T19:47:05.979Z,100414.85
2023-11-01T19:49:36.996Z,100411.19
2023-11-01T19:52:05.229Z,100413.93
2023-11-01T19:54:39.059Z,100407.75
2023-11-01T19:57:10.960Z,100404.88
2023-11-01T19:59:40.634Z,100396.70
2023-11-01T20:02:21.061Z,100393.37
2023-11-01T20:04:54.179Z,100395.63
2023-11-01T20:07:22.325Z,100403.27
2023-11-01T20:09:50.375Z,100398.66
2023-11-01T20:12:24.995Z,100387.48
2023-11-01T20:14:56.071Z,100393.82
2023-11-01T20:17:24.299Z,100398.86
2023-11-01T20:19:52.404Z,100401.15
2023-11-01T20:22:20.497Z,100404.62
2023-11-01T20:24:48.624Z,100392.81
2023-11-01T20:27:16.770Z,100397.13
2023-11-01T20:29:45.640Z,100385.09
2023-11-01T20:32:14.170Z,100387.52
2023-11-01T20:34:42.137Z,100371.82
2023-11-01T20:37:10.209Z,100374.53
2023-11-01T20:39:38.326Z,100366.59
2023-11-01T20:42:07.358Z,100358.61
2023-11-01T20:44:35.460Z,100357.30
2023-11-01T20:47:03.725Z,100354.72
2023-11-01T20:49:31.776Z,100353.64
2023-11-01T20:51:59.871Z,100338.05
2023-11-01T20:54:28.845Z,100327.02
2023-11-01T20:56:57.180Z,100321.30
2023-11-01T20:59:25.352Z,100327.35
2023-11-01T21:01:53.434Z,100323.10
2023-11-01T21:04:21.723Z,100313.49
2023-11-01T21:06:49.814Z,100320.84
2023-11-01T21:09:17.905Z,100324.09
2023-11-01T21:11:50.124Z,100318.10
2023-11-01T21:14:19.758Z,100326.93
2023-11-01T21:16:47.854Z,100319.93
2023-11-01T21:19:16.161Z,100325.36
2023-11-01T21:21:44.247Z,100323.73
2023-11-01T21:24:13.614Z,100336.45
2023-11-01T21:26:41.756Z,100330.49
2023-11-01T21:29:11.142Z,100327.98
2023-11-01T21:31:39.218Z,100327.29
2023-11-01T21:34:08.740Z,100326.66
2023-11-01T21:36:37.186Z,100326.21
2023-11-01T21:39:06.476Z,100327.38
2023-11-01T21:41:35.143Z,100314.57
2023-11-01T21:44:03.590Z,100313.13
2023-11-01T21:46:31.683Z,100315.52
2023-11-01T21:48:59.923Z,100304.83
2023-11-01T21:51:33.891Z,100303.65
2023-11-01T21:54:03.440Z,100298.74
2023-11-01T21:56:34.542Z,100292.11
2023-11-01T21:59:11.712Z,100287.37
2023-11-01T22:01:39.949Z,100282.04
2023-11-01T22:04:22.858Z,100278.66
2023-11-01T22:06:51.888Z,100265.98
2023-11-01T22:09:20.311Z,100260.49
2023-11-01T22:11:50.290Z,100251.95
2023-11-01T22:14:47.546Z,100247.45
2023-11-01T22:17:26.960Z,100228.94
2023-11-01T22:19:55.583Z,100216.94
2023-11-01T22:22:23.447Z,100216.48
2023-11-01T22:24:51.477Z,100212.42
2023-11-01T22:27:19.547Z,100199.70
2023-11-01T22:29:50.041Z,100194.38
2023-11-01T22:32:20.760Z,100172.18
2023-11-01T22:34:52.441Z,100172.54
2023-11-01T22:37:22.536Z,100166.95
2023-11-01T22:39:53.502Z,100164.00
2023-11-01T22:42:31.740Z,100150.95
2023-11-01T22:45:03.731Z,100142.42
2023-11-01T22:47:32.110Z,100144.55
2023-11-01T22:50:00.267Z,100128.27
2023-11-01T22:52:28.279Z,100114.27
2023-11-01T22:54:56.265Z,100106.66
2023-11-01T22:57:24.372Z,100103.09
2023-11-01T22:59:52.916Z,100090.44
2023-11-01T23:02:22.332Z,100083.18
2023-11-01T23:04:51.492Z,100078.89
2023-11-01T23:07:19.549Z,100082.13
2023-11-01T23:09:48.309Z,100068.95
2023-11-01T23:12:16.387Z,100066.47
2023-11-01T23:14:44.449Z,100062.52
2023-11-01T23:17:12.422Z,100053.85
2023-11-01T23:19:40.769Z,100061.80
2023-11-01T23:22:08.866Z,100061.34
2023-11-01T23:24:38.851Z,100064.18
2023-11-01T23:27:07.145Z,100058.36
2023-11-01T23:29:36.424Z,100064.28
2023-11-01T23:32:11.858Z,100067.94
2023-11-01T23:34:46.397Z,100050.38
2023-11-01T23:37:33.351Z,100045.28
2023-11-01T23:40:01.954Z,100041.36
2023-11-01T23:42:31.338Z,100035.08
2023-11-01T23:45:00.236Z,100028.58
2023-11-01T23:47:53.448Z,100006.27
2023-11-01T23:50:35.113Z,100008.30
2023-11-01T23:53:04.012Z,100013.86
2023-11-01T23:55:32.515Z,100001.17
2023-11-01T23:58:01.990Z,99991.92
